< < Back
Terminal Aerodrome Forecast


Current Version              Previous Versions:   1  2  3  4  5  6  7  8  9  

Terminal Aerodrome Forecast

306
FTUS42 KCHS 011800 AAA
TAFCHS
TAF AMD
KCHS 011809Z 0118/0218 17010KT P6SM VCTS SCT035CB SCT250
      TEMPO 0118/0120 5SM -TSRA BR BKN030CB
     FM020100 21005KT P6SM FEW025 SCT200=

Latest METAR

262
SAUS80 KWBC 020200 CCB
MTRCHS
METAR KCHS 020156Z 18005KT 10SM FEW100 BKN250 28/24 A3009 RMK AO2 SLP188
T02780244 $


USA.gov is the U.S. government's official web portal to all federal, state and local government web resources and services.